Time;durP1;ratioP1;P1;durP2;ratioP2;P2;SDS_P1;SDS_P2;PMS_P1;PMS_P2;Temp;Humidity;BMP_temperature;BMP_pressure;BME280_temperature;BME280_humidity;BME280_pressure;Samples;Min_cycle;Max_cycle;Signal;HPM_P1;HPM_P2
2022/08/28 00:02:03;;;;;;;8.75;2.90;;;;;;;15.71;66.62;101793.28;5080810;28;20567;-73
2022/08/28 00:04:31;;;;;;;11.77;2.83;;;;;;;15.64;66.56;101784.66;5082605;28;20132;-73
2022/08/28 00:07:00;;;;;;;9.48;2.72;;;;;;;15.60;66.75;101786.56;5090124;28;20068;-73
2022/08/28 00:09:28;;;;;;;8.50;2.80;;;;;;;15.58;66.95;101791.06;5078948;28;20064;-73
2022/08/28 00:11:55;;;;;;;10.90;3.30;;;;;;;15.57;66.69;101788.47;5085609;28;20076;-74
2022/08/28 00:14:24;;;;;;;8.73;2.97;;;;;;;15.53;66.89;101793.88;5087229;28;20045;-73
2022/08/28 00:16:53;;;;;;;8.95;3.47;;;;;;;15.49;67.15;101789.63;5091442;28;20098;-74
2022/08/28 00:19:22;;;;;;;7.55;2.90;;;;;;;15.47;66.97;101791.44;5089933;28;20115;-74
2022/08/28 00:21:51;;;;;;;11.07;3.60;;;;;;;15.45;67.38;101793.28;5089421;28;20316;-75
2022/08/28 00:24:19;;;;;;;10.35;3.22;;;;;;;15.43;67.20;101789.81;5087360;28;20037;-75
2022/08/28 00:29:31;;;;;;;10.13;3.08;;;;;;;15.35;67.46;101802.50;5090041;28;20116;-76
2022/08/28 00:31:59;;;;;;;7.60;2.50;;;;;;;15.33;67.46;101797.25;5112245;27;20044;-76
2022/08/28 00:34:27;;;;;;;10.93;3.58;;;;;;;15.31;67.71;101799.09;5088091;28;20048;-76
2022/08/28 00:37:00;;;;;;;7.50;2.97;;;;;;;15.29;67.75;101798.28;5090388;28;20047;-73
2022/08/28 00:39:27;;;;;;;9.85;3.40;;;;;;;15.25;67.89;101799.31;5076376;28;20584;-73
2022/08/28 00:41:56;;;;;;;9.90;3.55;;;;;;;15.24;68.14;101791.38;5091958;28;20068;-73
2022/08/28 00:44:26;;;;;;;9.63;3.53;;;;;;;15.19;68.10;101788.88;5104729;28;20066;-73
2022/08/28 00:46:58;;;;;;;8.93;3.70;;;;;;;15.16;68.33;101792.53;5088210;28;20032;-73
2022/08/28 00:49:34;;;;;;;12.15;4.28;;;;;;;15.11;68.39;101790.94;5091274;28;20041;-73
2022/08/28 00:52:10;;;;;;;10.60;3.72;;;;;;;15.05;68.43;101795.56;5085275;28;20524;-74
2022/08/28 00:54:45;;;;;;;15.32;3.70;;;;;;;14.99;68.65;101792.25;5085354;28;20484;-75
2022/08/28 00:57:36;;;;;;;8.00;3.85;;;;;;;14.97;68.80;101797.59;5077157;28;20040;-75
2022/08/28 01:00:10;;;;;;;7.13;3.47;;;;;;;14.92;69.14;101799.53;5081234;28;20068;-74
2022/08/28 01:02:37;;;;;;;10.32;3.88;;;;;;;14.86;69.06;101799.72;5082837;28;20043;-74
2022/08/28 01:05:08;;;;;;;12.68;4.35;;;;;;;14.83;69.33;101803.34;5086242;28;20132;-75
2022/08/28 01:07:38;;;;;;;9.27;3.88;;;;;;;14.79;69.38;101804.41;5090946;28;20495;-74
2022/08/28 01:10:13;;;;;;;15.52;4.60;;;;;;;14.74;69.62;101801.91;5085665;28;20117;-74
2022/08/28 01:12:41;;;;;;;12.20;3.95;;;;;;;14.70;69.87;101807.34;5079455;28;20103;-75
2022/08/28 01:15:16;;;;;;;11.38;4.38;;;;;;;14.66;69.96;101803.00;5074426;28;20187;-73
2022/08/28 01:17:47;;;;;;;;;;;;;;;14.63;69.95;101808.41;5089456;28;20051;-73
2022/08/28 01:20:22;;;;;;;12.60;4.28;;;;;;;14.58;70.15;101816.53;5088769;28;20050;-72
2022/08/28 01:23:10;;;;;;;11.13;4.60;;;;;;;14.53;70.59;101806.06;5080399;28;20904;-73
2022/08/28 01:25:39;;;;;;;9.60;3.97;;;;;;;14.49;70.67;101812.38;5081268;28;20045;-72
2022/08/28 01:28:12;;;;;;;9.38;3.90;;;;;;;14.48;71.09;101815.97;5076458;28;20041;-73
2022/08/28 01:30:43;;;;;;;;;;;;;;;14.42;70.78;101811.72;5075797;28;20052;-73
2022/08/28 01:33:13;;;;;;;8.20;3.55;;;;;;;14.39;71.13;101818.91;5095679;28;20122;-74
2022/08/28 01:35:46;;;;;;;9.95;4.22;;;;;;;14.34;70.97;101807.53;5077075;28;20106;-73
2022/08/28 01:38:15;;;;;;;12.15;4.13;;;;;;;14.31;71.19;101823.53;5092669;28;20079;-73
2022/08/28 01:40:56;;;;;;;10.40;4.32;;;;;;;14.27;71.24;101821.00;5086994;28;20072;-73
2022/08/28 01:43:26;;;;;;;9.50;4.50;;;;;;;14.22;71.34;101812.31;5092124;28;20068;-73
2022/08/28 01:46:00;;;;;;;10.43;4.38;;;;;;;14.18;71.42;101812.44;5089206;28;20068;-73
2022/08/28 01:48:31;;;;;;;11.77;4.60;;;;;;;14.14;71.45;101817.81;5091985;28;20044;-73
2022/08/28 01:50:59;;;;;;;9.70;4.03;;;;;;;14.09;71.81;101819.75;5090745;28;20087;-74
2022/08/28 01:53:31;;;;;;;10.48;4.30;;;;;;;14.07;72.18;101816.28;5091558;28;20045;-74
2022/08/28 01:56:05;;;;;;;14.13;4.20;;;;;;;14.04;72.54;101815.50;5085066;28;20526;-74
2022/08/28 01:58:34;;;;;;;13.85;3.97;;;;;;;13.98;72.47;101825.41;5086629;28;20052;-74
2022/08/28 02:01:15;;;;;;;13.05;4.25;;;;;;;13.96;72.95;101821.03;5086280;28;20033;-74
2022/08/28 02:03:43;;;;;;;16.35;4.72;;;;;;;13.91;73.18;101821.16;5087943;28;20044;-74
2022/08/28 02:06:14;;;;;;;11.43;4.78;;;;;;;13.88;73.15;101829.22;5089076;28;20041;-74
2022/08/28 02:08:41;;;;;;;15.18;4.70;;;;;;;13.82;73.29;101824.97;5087837;28;20045;-74
2022/08/28 02:11:09;;;;;;;15.27;4.80;;;;;;;13.79;73.65;101829.44;5080153;28;20041;-74
2022/08/28 02:13:38;;;;;;;12.55;5.10;;;;;;;13.75;73.58;101830.47;5088708;28;20044;-74
2022/08/28 02:16:08;;;;;;;11.88;4.75;;;;;;;13.73;73.84;101833.16;5081971;28;20132;-74
2022/08/28 02:18:36;;;;;;;14.27;5.55;;;;;;;13.71;73.96;101828.81;5089631;28;20048;-74
2022/08/28 02:21:06;;;;;;;10.65;4.93;;;;;;;13.68;74.21;101835.06;5089782;28;20072;-73
2022/08/28 02:23:38;;;;;;;12.50;5.05;;;;;;;13.66;74.12;101837.78;5111431;27;20071;-75
2022/08/28 02:26:07;;;;;;;10.02;4.75;;;;;;;13.64;74.35;101839.59;5093400;27;20036;-74
2022/08/28 02:28:36;;;;;;;15.48;4.53;;;;;;;13.61;74.65;101842.31;5092817;28;20053;-75
2022/08/28 02:31:08;;;;;;;13.43;4.82;;;;;;;13.57;74.75;101842.44;5091555;28;20040;-73
2022/08/28 02:33:43;;;;;;;11.65;4.72;;;;;;;13.55;74.68;101844.25;5084996;28;20043;-74
2022/08/28 02:36:13;;;;;;;12.40;4.70;;;;;;;13.51;75.08;101844.34;5087702;28;20492;-75
2022/08/28 02:38:43;;;;;;;9.70;4.32;;;;;;;13.49;75.01;101839.97;5091706;28;20470;-75
2022/08/28 02:41:16;;;;;;;14.43;4.63;;;;;;;13.46;75.34;101840.09;5090659;28;20041;-75
2022/08/28 02:43:43;;;;;;;12.55;4.47;;;;;;;13.42;75.41;101844.59;5091301;28;20455;-75
2022/08/28 02:46:10;;;;;;;13.45;4.53;;;;;;;13.40;75.55;101837.56;5091476;28;20351;-75
2022/08/28 02:48:39;;;;;;;15.27;4.80;;;;;;;13.35;75.69;101846.50;5091090;28;20040;-75
2022/08/28 02:51:13;;;;;;;12.90;4.57;;;;;;;13.36;76.13;101839.41;5087647;28;20045;-73
2022/08/28 02:53:41;;;;;;;10.20;4.30;;;;;;;13.34;75.98;101842.09;5091517;28;20094;-73
2022/08/28 02:56:09;;;;;;;11.05;4.40;;;;;;;13.31;76.37;101842.19;5090641;28;21185;-71
2022/08/28 02:58:38;;;;;;;10.48;4.38;;;;;;;13.31;76.38;101831.59;5091899;28;20040;-71
2022/08/28 03:01:10;;;;;;;14.13;4.38;;;;;;;13.27;76.46;101837.88;5107269;27;20053;-71
2022/08/28 03:03:38;;;;;;;10.10;4.13;;;;;;;13.26;76.37;101840.56;5076283;28;20124;-71
2022/08/28 03:06:11;;;;;;;16.55;4.88;;;;;;;13.24;76.60;101840.59;5085457;28;20041;-71
2022/08/28 03:08:40;;;;;;;11.95;4.57;;;;;;;13.24;76.79;101840.59;5090264;28;20048;-70
2022/08/28 03:11:08;;;;;;;10.48;4.20;;;;;;;13.18;76.81;101844.28;5088324;28;20047;-71
2022/08/28 03:13:35;;;;;;;12.55;4.90;;;;;;;13.17;77.10;101844.31;5092123;28;20055;-71
2022/08/28 03:16:03;;;;;;;10.02;4.68;;;;;;;13.16;77.03;101842.59;5085565;28;20063;-71
2022/08/28 03:18:31;;;;;;;11.38;4.20;;;;;;;13.13;77.07;101847.94;5088734;28;20048;-71
2022/08/28 03:21:00;;;;;;;12.93;4.72;;;;;;;13.08;77.35;101842.78;5095212;28;20094;-71
2022/08/28 03:23:27;;;;;;;15.23;4.78;;;;;;;13.09;77.42;101836.56;5091962;28;20041;-73
2022/08/28 03:26:01;;;;;;;13.23;4.53;;;;;;;13.07;77.31;101838.38;5091621;28;20044;-73
2022/08/28 03:28:40;;;;;;;13.73;4.70;;;;;;;13.03;77.61;101842.00;5083287;28;20492;-73
2022/08/28 03:31:14;;;;;;;10.20;4.32;;;;;;;13.01;77.47;101835.91;5083821;28;20098;-73
2022/08/28 03:33:41;;;;;;;12.30;4.72;;;;;;;12.99;77.53;101846.50;5084708;28;20504;-73
2022/08/28 03:36:16;;;;;;;13.15;4.65;;;;;;;12.98;77.70;101843.91;5094542;28;20195;-73
2022/08/28 03:38:43;;;;;;;15.50;4.57;;;;;;;12.98;77.71;101846.53;5086689;28;20037;-74
2022/08/28 03:41:16;;;;;;;10.73;4.32;;;;;;;12.97;77.92;101844.81;5087301;28;20050;-74
2022/08/28 03:43:45;;;;;;;17.50;4.68;;;;;;;12.98;78.20;101843.91;5089907;28;20037;-74
2022/08/28 03:46:21;;;;;;;13.27;4.82;;;;;;;12.95;78.07;101844.84;5090353;28;20047;-73
2022/08/28 03:48:50;;;;;;;10.43;4.05;;;;;;;12.96;78.39;101851.88;5089865;28;20047;-73
2022/08/28 03:51:24;;;;;;;15.18;4.60;;;;;;;12.98;78.38;101855.34;5087812;28;20048;-71
2022/08/28 03:54:00;;;;;;;13.77;4.68;;;;;;;13.03;78.42;101865.81;5087714;28;20123;-73
2022/08/28 03:56:29;;;;;;;10.88;4.40;;;;;;;13.05;78.56;101869.31;5088438;28;20068;-72
2022/08/28 03:59:00;;;;;;;14.15;4.70;;;;;;;13.08;78.45;101865.69;5077829;28;20044;-73
2022/08/28 04:01:28;;;;;;;11.57;4.82;;;;;;;13.09;78.31;101863.03;5080363;28;20112;-74
2022/08/28 04:03:56;;;;;;;11.50;4.60;;;;;;;13.15;78.23;101868.16;5081834;28;20057;-74
2022/08/28 04:06:24;;;;;;;9.65;4.43;;;;;;;13.22;78.23;101865.38;5088650;28;20063;-75
2022/08/28 04:08:51;;;;;;;9.07;4.15;;;;;;;13.24;78.11;101866.19;5088342;28;20048;-74
2022/08/28 04:11:20;;;;;;;14.50;4.43;;;;;;;13.26;78.15;101872.34;5084852;28;20287;-73
2022/08/28 04:13:47;;;;;;;13.43;4.28;;;;;;;13.26;78.13;101875.88;5081942;28;20045;-73
2022/08/28 04:16:17;;;;;;;13.68;4.55;;;;;;;13.27;77.95;101874.06;5084746;28;20136;-74
2022/08/28 04:18:48;;;;;;;12.18;4.82;;;;;;;13.27;77.90;101869.66;5094802;28;20047;-72
2022/08/28 04:21:19;;;;;;;10.85;3.95;;;;;;;13.29;78.05;101874.91;5089817;28;20053;-70
2022/08/28 04:23:47;;;;;;;11.43;4.35;;;;;;;13.33;77.91;101877.44;5085166;28;20095;-73
2022/08/28 04:26:19;;;;;;;12.20;4.20;;;;;;;13.31;78.19;101875.75;5091060;28;20074;-74
2022/08/28 04:28:47;;;;;;;14.88;4.05;;;;;;;13.32;77.87;101881.00;5084321;28;20088;-73
2022/08/28 04:31:16;;;;;;;9.38;4.20;;;;;;;13.35;77.80;101880.94;5087389;28;20424;-73
2022/08/28 04:33:58;;;;;;;11.27;4.13;;;;;;;13.35;77.96;101878.28;5084489;28;20044;-71
2022/08/28 04:36:25;;;;;;;8.18;4.10;;;;;;;13.35;78.10;101878.28;5090188;28;20044;-74
2022/08/28 04:38:52;;;;;;;10.85;4.13;;;;;;;13.34;78.16;101884.47;5082957;28;20041;-73
2022/08/28 04:41:19;;;;;;;9.63;4.20;;;;;;;13.34;78.09;101880.94;5090713;28;20044;-74
2022/08/28 04:43:47;;;;;;;13.75;4.05;;;;;;;13.34;78.20;101878.28;5090553;28;20056;-74
2022/08/28 04:46:14;;;;;;;13.65;4.13;;;;;;;13.34;78.05;101888.88;5081940;28;20080;-73
2022/08/28 04:48:42;;;;;;;10.23;4.55;;;;;;;13.33;78.05;101893.34;5075884;28;20041;-74
2022/08/28 04:51:13;;;;;;;8.60;3.95;;;;;;;13.33;78.29;101885.38;5082672;28;20167;-73
2022/08/28 04:53:42;;;;;;;10.23;3.88;;;;;;;13.28;78.17;101881.97;5088958;28;20127;-74
2022/08/28 04:56:14;;;;;;;9.50;3.75;;;;;;;13.30;78.38;101890.75;5087125;28;20721;-74
2022/08/28 04:58:42;;;;;;;8.73;3.90;;;;;;;13.29;78.87;101893.44;5082802;28;20041;-74
2022/08/28 05:01:22;;;;;;;13.65;4.47;;;;;;;13.29;78.33;101896.94;5082613;28;20128;-74
2022/08/28 05:03:56;;;;;;;9.93;3.85;;;;;;;13.30;78.40;101905.78;5086730;28;20067;-74
2022/08/28 05:06:27;;;;;;;8.52;3.90;;;;;;;13.26;78.99;101894.41;5082317;28;20900;-74
2022/08/28 05:09:01;;;;;;;12.25;4.68;;;;;;;13.27;78.68;101895.25;5091514;28;20528;-73
2022/08/28 05:11:30;;;;;;;15.68;4.90;;;;;;;13.26;78.43;101907.66;5087221;28;20131;-73
2022/08/28 05:14:04;;;;;;;13.68;4.45;;;;;;;13.28;78.69;101897.84;5086980;28;20048;-73
2022/08/28 05:16:38;;;;;;;13.00;4.65;;;;;;;13.30;78.94;101893.41;5082254;28;20102;-75
2022/08/28 05:19:05;;;;;;;11.23;5.05;;;;;;;13.31;78.65;101904.88;5088418;28;20041;-74
2022/08/28 05:21:32;;;;;;;12.35;4.57;;;;;;;13.33;78.63;101908.34;5087082;28;20033;-72
2022/08/28 05:23:59;;;;;;;11.70;4.88;;;;;;;13.35;78.60;101907.41;5086792;28;20124;-75
2022/08/28 05:26:27;;;;;;;12.10;4.45;;;;;;;13.37;78.57;101904.72;5087602;28;20784;-74
2022/08/28 05:28:59;;;;;;;11.02;3.90;;;;;;;13.40;78.39;101912.63;5090518;27;20040;-74
2022/08/28 05:31:30;;;;;;;15.43;4.50;;;;;;;13.43;78.41;101911.66;5084399;28;20095;-72
2022/08/28 05:33:59;;;;;;;13.88;4.65;;;;;;;13.46;78.18;101919.53;5088534;28;20098;-73
2022/08/28 05:36:32;;;;;;;14.05;4.43;;;;;;;13.48;78.12;101917.75;5085845;28;20041;-73
2022/08/28 05:39:03;;;;;;;11.45;4.43;;;;;;;13.54;77.90;101920.22;5087244;28;20048;-72
2022/08/28 05:41:33;;;;;;;10.73;4.38;;;;;;;13.63;77.65;101913.81;5087825;28;20112;-71
2022/08/28 05:44:10;;;;;;;10.38;3.90;;;;;;;13.72;77.77;101915.34;5085672;28;20071;-71
2022/08/28 05:46:41;;;;;;;12.50;4.10;;;;;;;13.79;77.25;101928.41;5089261;28;20559;-72
2022/08/28 05:49:17;;;;;;;8.18;3.47;;;;;;;13.89;77.10;101921.06;5086148;28;20597;-71
2022/08/28 05:51:45;;;;;;;11.13;3.63;;;;;;;13.96;77.04;101925.28;5085718;28;20515;-72
2022/08/28 05:54:14;;;;;;;13.10;4.40;;;;;;;14.02;76.70;101923.38;5093575;28;20047;-72
2022/08/28 05:56:44;;;;;;;8.20;3.88;;;;;;;14.08;76.64;101932.03;5086795;28;20040;-73
2022/08/28 05:59:13;;;;;;;10.15;4.03;;;;;;;14.14;76.54;101929.19;5086105;28;20076;-72
2022/08/28 06:01:47;;;;;;;8.43;3.50;;;;;;;14.25;76.44;101936.88;5088391;28;20049;-72
2022/08/28 06:04:24;;;;;;;8.35;3.17;;;;;;;14.31;76.38;101934.94;5087099;28;20053;-73
2022/08/28 06:06:52;;;;;;;9.18;3.00;;;;;;;14.38;75.78;101931.22;5084995;28;20037;-73
2022/08/28 06:09:24;;;;;;;11.02;3.05;;;;;;;14.41;75.87;101926.69;5086572;28;20973;-72
2022/08/28 06:11:59;;;;;;;10.80;3.78;;;;;;;14.53;75.56;101938.72;5089761;28;20044;-72
2022/08/28 06:14:29;;;;;;;13.27;3.92;;;;;;;14.57;75.41;101937.72;5090199;28;20094;-71
2022/08/28 06:16:57;;;;;;;9.98;3.63;;;;;;;14.67;75.28;101938.34;5091320;28;20048;-73
2022/08/28 06:19:28;;;;;;;11.05;3.58;;;;;;;14.78;74.79;101940.69;5070766;28;20078;-72
2022/08/28 06:22:00;;;;;;;10.45;3.63;;;;;;;14.89;74.33;101945.66;5088193;28;20049;-73
2022/08/28 06:24:33;;;;;;;9.02;3.40;;;;;;;14.94;74.19;101946.38;5089922;28;21758;-73
2022/08/28 06:27:00;;;;;;;10.65;4.07;;;;;;;15.04;73.96;101942.53;5089544;28;20045;-73
2022/08/28 06:29:29;;;;;;;16.17;3.53;;;;;;;15.12;73.77;101939.59;5087793;28;20615;-72
2022/08/28 06:32:03;;;;;;;11.23;3.67;;;;;;;15.22;73.72;101945.50;5090027;28;20132;-72
2022/08/28 06:34:30;;;;;;;10.65;3.17;;;;;;;15.35;73.34;101943.31;5088310;28;20585;-71
2022/08/28 06:36:59;;;;;;;11.88;3.53;;;;;;;15.45;73.13;101939.44;5090058;28;20530;-71
2022/08/28 06:39:26;;;;;;;9.35;2.60;;;;;;;15.63;72.33;101945.94;5094562;28;20131;-72
2022/08/28 06:41:54;;;;;;;8.13;3.05;;;;;;;15.74;71.06;101942.88;5091364;28;20496;-72
2022/08/28 06:44:21;;;;;;;10.38;3.05;;;;;;;15.77;71.02;101945.44;5093888;28;20125;-71
2022/08/28 06:46:52;;;;;;;10.60;2.70;;;;;;;15.87;70.57;101945.16;5086520;28;20124;-71
2022/08/28 06:49:21;;;;;;;8.38;2.83;;;;;;;15.92;70.40;101949.38;5090678;28;20071;-71
2022/08/28 06:51:48;;;;;;;9.23;2.38;;;;;;;16.04;69.61;101944.56;5090352;28;20045;-73
2022/08/28 06:54:16;;;;;;;13.00;2.90;;;;;;;16.10;69.42;101947.88;5087947;28;20052;-71
2022/08/28 06:56:51;;;;;;;8.55;2.58;;;;;;;16.22;68.88;101945.69;5105012;28;20127;-72
2022/08/28 06:59:18;;;;;;;8.73;2.63;;;;;;;16.29;68.81;101952.53;5084051;28;20056;-71
2022/08/28 07:01:46;;;;;;;11.07;2.80;;;;;;;16.37;68.85;101950.44;5092113;28;20463;-72
2022/08/28 07:04:13;;;;;;;8.80;2.45;;;;;;;16.50;68.86;101956.16;5087568;28;20057;-73
2022/08/28 07:06:44;;;;;;;8.52;2.30;;;;;;;16.71;67.45;101951.84;5090911;28;20099;-72
2022/08/28 07:09:13;;;;;;;7.03;2.63;;;;;;;16.81;66.36;101959.47;5091169;28;20110;-72
2022/08/28 07:11:47;;;;;;;7.47;2.20;;;;;;;16.85;66.40;101961.06;5092636;28;20579;-72
2022/08/28 07:14:15;;;;;;;7.57;2.20;;;;;;;16.97;65.34;101967.75;5092660;28;20047;-72
2022/08/28 07:16:43;;;;;;;9.57;2.40;;;;;;;17.01;65.16;101964.91;5093245;28;20040;-72
2022/08/28 07:19:12;;;;;;;7.47;2.20;;;;;;;17.10;64.39;101961.00;5088395;28;20040;-72
2022/08/28 07:21:43;;;;;;;8.75;2.17;;;;;;;17.15;64.02;101955.47;5090333;28;20619;-72
2022/08/28 07:24:13;;;;;;;6.75;2.00;;;;;;;17.22;64.05;101968.50;5092197;28;20068;-72
2022/08/28 07:26:42;;;;;;;12.60;2.65;;;;;;;17.32;63.37;101969.00;5092232;28;20190;-72
2022/08/28 07:29:10;;;;;;;9.18;1.98;;;;;;;17.39;62.76;101962.47;5082235;28;20134;-72
2022/08/28 07:31:45;;;;;;;7.82;1.95;;;;;;;17.43;62.50;101963.22;5090095;28;20110;-70
2022/08/28 07:34:14;;;;;;;5.70;1.55;;;;;;;17.52;62.03;101968.16;5090732;28;20045;-71
2022/08/28 07:36:42;;;;;;;7.78;1.85;;;;;;;17.58;61.85;101974.19;5088749;28;20040;-71
2022/08/28 07:39:12;;;;;;;7.60;2.30;;;;;;;17.63;62.03;101967.72;5090811;28;20110;-71
2022/08/28 07:41:41;;;;;;;9.45;2.00;;;;;;;17.72;61.46;101968.25;5087594;28;20048;-70
2022/08/28 07:47:04;;;;;;;10.77;2.10;;;;;;;17.91;61.04;101971.88;5088704;28;20094;-71
2022/08/28 07:49:33;;;;;;;7.53;2.00;;;;;;;18.00;60.86;101967.97;5093782;28;20040;-72
2022/08/28 07:52:01;;;;;;;6.03;1.80;;;;;;;18.11;59.96;101970.16;5086667;28;20044;-71
2022/08/28 07:54:28;;;;;;;6.53;1.75;;;;;;;18.20;59.65;101969.75;5090484;28;20084;-71
2022/08/28 07:56:56;;;;;;;5.13;1.60;;;;;;;18.27;60.19;101965.88;5089974;28;20103;-72
2022/08/28 07:59:24;;;;;;;4.05;1.35;;;;;;;18.46;57.44;101968.56;5090884;28;20795;-72
2022/08/28 08:01:52;;;;;;;8.73;1.65;;;;;;;18.53;57.42;101977.19;5089376;28;20047;-71
2022/08/28 08:04:22;;;;;;;6.07;1.50;;;;;;;18.63;57.21;101985.59;5087372;28;20098;-70
2022/08/28 08:06:52;;;;;;;7.22;1.63;;;;;;;18.82;56.76;101979.44;5088725;28;20041;-71
2022/08/28 08:09:25;;;;;;;5.00;1.67;;;;;;;18.92;56.08;101986.94;5091071;28;20033;-69
2022/08/28 08:11:55;;;;;;;5.50;1.60;;;;;;;19.03;55.41;101986.44;5088964;28;20123;-69
2022/08/28 08:14:24;;;;;;;6.00;1.50;;;;;;;19.13;55.21;101986.88;5090752;27;20124;-70
2022/08/28 08:16:52;;;;;;;5.07;1.40;;;;;;;19.24;54.68;101991.69;5089221;28;20049;-70
2022/08/28 08:19:19;;;;;;;3.90;1.10;;;;;;;19.27;54.74;101988.03;5085910;28;20064;-70
2022/08/28 08:21:49;;;;;;;8.02;1.55;;;;;;;19.39;54.79;101987.38;5089821;28;20190;-70
2022/08/28 08:24:24;;;;;;;6.57;1.42;;;;;;;19.60;54.00;101993.50;5089626;28;20072;-70
2022/08/28 08:26:57;;;;;;;4.97;1.40;;;;;;;19.66;53.02;101993.16;5089188;28;20052;-72
2022/08/28 08:29:34;;;;;;;;;;;;;;;19.82;52.74;101989.72;5089972;28;20048;-70
2022/08/28 08:32:07;;;;;;;7.93;1.60;;;;;;;19.95;52.48;101985.50;5089388;28;19924;-69
2022/08/28 08:34:42;;;;;;;4.57;1.50;;;;;;;20.25;52.13;101984.81;5091852;27;20044;-70
2022/08/28 08:37:10;;;;;;;7.20;1.33;;;;;;;20.53;52.08;101987.81;5089605;28;20088;-70
2022/08/28 08:39:40;;;;;;;3.97;1.10;;;;;;;20.68;50.65;101989.69;5090563;28;20478;-68
2022/08/28 08:42:26;;;;;;;3.95;1.40;;;;;;;20.49;50.82;101984.47;5087780;28;20040;-69
2022/08/28 08:44:57;;;;;;;4.50;1.23;;;;;;;20.36;49.51;101984.25;5089435;28;20984;-70
2022/08/28 08:47:50;;;;;;;3.40;0.90;;;;;;;20.26;49.93;101994.59;5085080;28;20044;-70
2022/08/28 08:50:22;;;;;;;4.20;1.30;;;;;;;20.33;50.28;101982.63;5089914;28;20108;-70
2022/08/28 08:53:08;;;;;;;6.68;1.10;;;;;;;20.55;49.58;101992.16;5088596;28;20069;-71
2022/08/28 08:55:46;;;;;;;5.00;1.30;;;;;;;20.56;49.15;101990.34;5087958;28;20116;-72
2022/08/28 08:58:36;;;;;;;6.90;1.40;;;;;;;20.67;48.99;101984.38;5087009;28;20048;-70
2022/08/28 09:01:22;;;;;;;3.92;1.20;;;;;;;20.86;48.60;101987.81;5084504;28;20114;-71
2022/08/28 09:04:39;;;;;;;3.67;1.15;;;;;;;21.03;48.63;101980.66;5099057;28;20075;-71
2022/08/28 09:07:18;;;;;;;3.35;1.10;;;;;;;21.36;47.66;101980.53;5090859;28;20033;-71
2022/08/28 09:09:54;;;;;;;4.78;1.10;;;;;;;21.56;46.51;101984.75;5081568;28;20041;-71
2022/08/28 09:12:27;;;;;;;6.68;1.45;;;;;;;21.54;47.04;101986.63;5090011;28;20040;-71
2022/08/28 09:15:25;;;;;;;5.72;1.13;;;;;;;21.60;46.70;101977.41;5096441;28;20122;-71
2022/08/28 09:18:06;;;;;;;5.85;1.30;;;;;;;21.47;45.99;101979.88;5082058;28;20106;-71
2022/08/28 09:20:33;;;;;;;4.53;1.15;;;;;;;21.25;46.76;101980.28;5082267;28;20569;-70
2022/08/28 09:23:00;;;;;;;5.95;1.45;;;;;;;21.18;47.18;101984.28;5089396;28;20036;-71
2022/08/28 09:25:51;;;;;;;6.15;1.23;;;;;;;21.14;46.99;101988.94;5097477;28;20070;-71
2022/08/28 09:28:29;;;;;;;4.63;1.05;;;;;;;21.21;46.42;101986.78;5090723;28;20460;-71
2022/08/28 09:31:07;;;;;;;4.50;1.00;;;;;;;21.14;45.86;101986.28;5091195;28;20040;-71
2022/08/28 09:33:50;;;;;;;3.45;1.30;;;;;;;21.19;46.56;101984.19;5089835;28;20848;-71
2022/08/28 09:36:33;;;;;;;3.85;1.30;;;;;;;21.25;46.23;101986.53;5090087;28;20119;-71
2022/08/28 09:39:24;;;;;;;4.65;1.20;;;;;;;21.40;45.89;101984.78;5089141;28;20041;-70
2022/08/28 09:45:19;;;;;;;5.18;1.30;;;;;;;21.67;45.73;101978.75;5090865;28;20124;-71
2022/08/28 09:48:02;;;;;;;4.82;1.10;;;;;;;21.90;45.00;101979.19;5087940;28;20106;-71
2022/08/28 09:50:41;;;;;;;5.03;1.10;;;;;;;21.95;44.47;101969.03;5086627;28;20632;-71
2022/08/28 09:53:08;;;;;;;4.28;1.15;;;;;;;22.00;44.56;101980.38;5081896;28;20053;-71
2022/08/28 09:56:15;;;;;;;4.15;1.10;;;;;;;22.02;44.24;101986.50;5087063;28;20571;-72
2022/08/28 09:58:54;;;;;;;4.78;1.30;;;;;;;21.80;43.66;101978.88;5085028;28;20041;-71
2022/08/28 10:01:40;;;;;;;4.93;1.35;;;;;;;21.53;44.70;101978.66;5086427;28;20071;-72
2022/08/28 10:04:14;;;;;;;2.53;1.05;;;;;;;21.63;45.51;101979.88;5093336;28;20134;-71
2022/08/28 10:07:11;;;;;;;5.30;1.08;;;;;;;21.81;45.39;101971.72;5071480;28;20558;-71
2022/08/28 10:10:29;;;;;;;4.50;1.20;;;;;;;21.71;44.64;101988.38;5081708;28;20141;-71
2022/08/28 10:13:09;;;;;;;5.40;1.27;;;;;;;21.68;45.36;101983.16;5085763;28;20041;-71
2022/08/28 10:16:08;;;;;;;5.05;1.30;;;;;;;21.78;45.10;101977.25;5082158;28;20495;-71
2022/08/28 10:18:51;;;;;;;4.95;1.05;;;;;;;21.96;44.81;101984.19;5089506;28;20106;-72
2022/08/28 10:21:41;;;;;;;2.95;0.80;;;;;;;22.05;42.98;101989.94;5090278;28;20131;-71
2022/08/28 10:24:45;;;;;;;4.78;1.10;;;;;;;21.97;42.49;101975.19;5085253;28;20045;-71
2022/08/28 10:27:33;;;;;;;4.95;1.35;;;;;;;22.08;43.85;101981.72;5081517;28;20497;-71
2022/08/28 10:30:13;;;;;;;3.17;0.98;;;;;;;22.36;42.34;101975.50;5090051;28;20091;-71
2022/08/28 10:33:05;;;;;;;4.10;0.88;;;;;;;22.36;42.36;101980.00;5086646;28;20075;-71
2022/08/28 10:36:03;;;;;;;4.22;0.80;;;;;;;22.57;41.07;101989.44;5091225;28;20044;-71
2022/08/28 10:38:44;;;;;;;4.55;1.00;;;;;;;22.55;41.06;101983.28;5093195;28;20486;-71
2022/08/28 10:41:32;;;;;;;4.43;1.10;;;;;;;22.57;41.21;101988.59;5088685;28;20047;-68
2022/08/28 10:44:03;;;;;;;3.35;1.05;;;;;;;22.75;40.82;101984.72;5085976;28;20475;-68
2022/08/28 10:46:54;;;;;;;5.38;1.05;;;;;;;22.87;41.52;101980.38;5092596;28;20037;-68
2022/08/28 10:49:36;;;;;;;3.70;0.85;;;;;;;22.91;41.31;101973.84;5087118;28;20075;-73
2022/08/28 10:52:22;;;;;;;3.33;1.02;;;;;;;22.65;42.26;101973.69;5092106;28;20033;-73
2022/08/28 10:55:06;;;;;;;3.22;1.00;;;;;;;22.37;42.39;101987.09;5091980;28;20958;-72
2022/08/28 10:57:47;;;;;;;4.97;1.08;;;;;;;21.93;42.69;101981.69;5089081;28;20040;-73
2022/08/28 11:00:20;;;;;;;3.25;1.10;;;;;;;21.97;42.67;101979.69;5086005;28;20047;-71
2022/08/28 11:03:05;;;;;;;3.42;1.00;;;;;;;22.23;40.82;101978.06;5089904;28;20099;-72
2022/08/28 11:06:04;;;;;;;;;;;;;;;22.26;41.09;101975.19;5090933;28;20047;-71
2022/08/28 11:08:35;;;;;;;2.58;0.88;;;;;;;22.59;40.00;101974.09;5088293;28;20026;-72
2022/08/28 11:11:12;;;;;;;3.13;0.80;;;;;;;22.82;39.43;101966.38;5080961;28;20157;-72
2022/08/28 11:14:05;;;;;;;3.60;1.00;;;;;;;22.99;39.72;101970.66;5080985;28;20072;-71
2022/08/28 11:16:32;;;;;;;2.08;0.70;;;;;;;23.03;39.97;101972.16;5088053;27;20107;-72
2022/08/28 11:19:35;;;;;;;3.90;1.20;;;;;;;23.33;39.53;101978.34;5084946;28;20091;-71
2022/08/28 11:22:18;;;;;;;4.10;0.98;;;;;;;23.43;40.04;101971.38;5089904;28;20112;-72
2022/08/28 11:25:17;;;;;;;4.65;1.10;;;;;;;23.39;39.52;101986.88;5087247;28;20083;-72
2022/08/28 11:28:23;;;;;;;2.83;1.00;;;;;;;23.22;38.97;101966.47;5095685;28;20060;-72
2022/08/28 11:30:59;;;;;;;2.60;0.82;;;;;;;23.34;38.65;101980.09;5092541;28;20041;-72
2022/08/28 11:33:38;;;;;;;2.40;0.80;;;;;;;23.49;37.84;101979.03;5079907;28;20052;-72
2022/08/28 11:36:31;;;;;;;2.33;1.00;;;;;;;23.46;38.04;101981.06;5092211;28;20044;-72
2022/08/28 11:39:21;;;;;;;3.65;0.90;;;;;;;23.31;39.02;101975.75;5091479;28;20044;-72
2022/08/28 11:42:28;;;;;;;2.95;0.80;;;;;;;23.20;38.77;101987.22;5098771;28;20037;-72
2022/08/28 11:44:55;;;;;;;2.10;0.93;;;;;;;23.06;39.10;101976.47;5085670;28;20110;-72
2022/08/28 11:47:45;;;;;;;2.88;1.10;;;;;;;22.78;39.13;101992.59;5090468;28;20070;-72
2022/08/28 11:50:20;;;;;;;2.80;0.95;;;;;;;22.59;39.28;101989.31;5091237;28;20102;-72
2022/08/28 11:54:07;;;;;;;4.07;0.93;;;;;;;22.52;38.99;101980.81;5092119;28;20041;-72
2022/08/28 11:56:48;;;;;;;4.97;1.10;;;;;;;22.89;38.21;101989.19;5084027;28;20172;-72
2022/08/28 11:59:42;;;;;;;2.22;0.70;;;;;;;23.18;37.14;101974.81;5093376;28;20401;-72
2022/08/28 12:02:43;;;;;;;2.95;0.90;;;;;;;23.50;36.55;101974.53;5088511;28;20575;-72
2022/08/28 12:05:14;;;;;;;3.70;0.98;;;;;;;23.64;36.40;101977.13;5083932;28;20057;-72